createdAt,value
2019-03-25T00:01:31.107Z,8.90
2019-03-25T00:04:00.041Z,8.90
2019-03-25T00:06:28.845Z,8.90
2019-03-25T00:11:27.971Z,8.80
2019-03-25T00:13:56.835Z,8.70
2019-03-25T00:18:54.286Z,8.50
2019-03-25T00:21:23.156Z,8.50
2019-03-25T00:23:51.993Z,8.40
2019-03-25T00:26:20.882Z,8.50
2019-03-25T00:28:49.741Z,8.40
2019-03-25T00:33:47.130Z,8.30
2019-03-25T00:36:15.992Z,8.30
2019-03-25T00:41:13.318Z,8.40
2019-03-25T00:43:42.152Z,8.40
2019-03-25T00:48:39.480Z,8.50
2019-03-25T00:51:08.955Z,8.50
2019-03-25T00:53:37.808Z,8.50
2019-03-25T00:58:35.125Z,8.50
2019-03-25T01:01:04.189Z,8.50
2019-03-25T01:03:33.135Z,8.50
2019-03-25T01:06:01.984Z,8.50
2019-03-25T01:08:30.803Z,8.50
2019-03-25T01:10:59.653Z,8.50
2019-03-25T01:15:57.963Z,8.50
2019-03-25T01:20:55.359Z,8.60
2019-03-25T01:23:24.233Z,8.60
2019-03-25T01:25:53.077Z,8.60
2019-03-25T01:28:21.721Z,8.60
2019-03-25T01:30:50.667Z,8.70
2019-03-25T01:33:19.550Z,8.70
2019-03-25T01:35:48.389Z,8.80
2019-03-25T01:38:17.293Z,8.80
2019-03-25T01:43:14.628Z,8.90
2019-03-25T01:45:43.466Z,8.90
2019-03-25T01:48:12.259Z,8.70
2019-03-25T01:50:41.088Z,8.70
2019-03-25T01:53:09.905Z,8.60
2019-03-25T01:55:38.749Z,8.50
2019-03-25T02:00:36.436Z,8.50
2019-03-25T02:03:05.306Z,8.50
2019-03-25T02:05:34.158Z,8.40
2019-03-25T02:08:02.979Z,8.40
2019-03-25T02:10:32.003Z,8.40
2019-03-25T02:13:01.124Z,8.40
2019-03-25T02:15:30.208Z,8.40
2019-03-25T02:17:59.074Z,8.60
2019-03-25T02:20:27.844Z,8.60
2019-03-25T02:22:56.857Z,8.70
2019-03-25T02:25:26.139Z,8.70
2019-03-25T02:27:55.086Z,8.50
2019-03-25T02:30:23.930Z,8.40
2019-03-25T02:32:52.761Z,8.40
2019-03-25T02:35:21.656Z,8.30
2019-03-25T02:37:50.438Z,8.30
2019-03-25T02:40:19.308Z,8.30
2019-03-25T02:42:48.091Z,8.20
2019-03-25T02:45:17.114Z,8.10
2019-03-25T02:47:45.959Z,8.10
2019-03-25T02:50:15.145Z,7.80
2019-03-25T02:52:56.583Z,7.60
2019-03-25T02:55:40.257Z,7.40
2019-03-25T02:57:56.015Z,7.20
2019-03-25T03:00:32.132Z,7.00
2019-03-25T03:03:00.941Z,6.90
2019-03-25T03:05:29.750Z,6.90
2019-03-25T03:07:59.769Z,6.70
2019-03-25T03:10:28.926Z,6.50
2019-03-25T03:12:58.676Z,6.50
2019-03-25T03:15:27.680Z,6.40
2019-03-25T03:17:56.688Z,6.30
2019-03-25T03:20:25.741Z,6.20
2019-03-25T03:22:54.831Z,6.20
2019-03-25T03:25:24.948Z,6.10
2019-03-25T03:27:54.516Z,6.10
2019-03-25T03:30:24.019Z,6.10
2019-03-25T03:32:53.770Z,6.00
2019-03-25T03:35:23.383Z,6.10
2019-03-25T03:37:53.470Z,6.10
2019-03-25T03:40:23.462Z,6.20
2019-03-25T03:42:55.992Z,3.10
2019-03-25T03:47:54.217Z,6.40
2019-03-25T03:50:25.901Z,6.40
2019-03-25T03:53:07.176Z,6.30
2019-03-25T03:55:38.723Z,6.10
2019-03-25T03:58:08.229Z,6.10
2019-03-25T04:03:05.775Z,6.00
2019-03-25T04:05:34.642Z,6.00
2019-03-25T04:08:03.645Z,6.00
2019-03-25T04:13:01.416Z,6.00
2019-03-25T04:15:31.372Z,6.10
2019-03-25T04:18:00.358Z,6.20
2019-03-25T04:20:29.325Z,6.20
2019-03-25T04:22:58.248Z,6.20
2019-03-25T04:25:27.180Z,6.20
2019-03-25T04:27:56.233Z,6.30
2019-03-25T04:30:25.123Z,6.30
2019-03-25T04:32:54.035Z,6.30
2019-03-25T04:35:24.339Z,6.20
2019-03-25T04:37:56.210Z,6.30
2019-03-25T04:40:23.938Z,6.30
2019-03-25T04:42:52.775Z,6.30
2019-03-25T04:45:21.748Z,6.30
2019-03-25T04:47:50.662Z,6.30
2019-03-25T04:50:21.062Z,6.30
2019-03-25T04:52:50.772Z,6.20
2019-03-25T04:55:19.780Z,6.30
2019-03-25T04:57:48.568Z,6.30
2019-03-25T05:00:22.093Z,6.30
2019-03-25T05:02:50.945Z,6.30
2019-03-25T05:05:19.856Z,6.20
2019-03-25T05:07:48.692Z,6.20
2019-03-25T05:10:17.659Z,6.20
2019-03-25T05:12:46.430Z,6.20
2019-03-25T05:15:15.376Z,6.10
2019-03-25T05:17:44.212Z,6.70
2019-03-25T05:20:13.070Z,6.00
2019-03-25T05:22:42.000Z,6.00
2019-03-25T05:27:39.353Z,6.00
2019-03-25T05:32:36.790Z,6.10
2019-03-25T05:35:07.291Z,6.10
2019-03-25T05:37:36.172Z,6.20
2019-03-25T05:40:05.461Z,6.40
2019-03-25T05:42:34.341Z,6.30
2019-03-25T05:45:03.884Z,6.80
2019-03-25T05:47:32.945Z,6.80
2019-03-25T05:50:01.711Z,7.20
2019-03-25T05:52:30.613Z,7.20
2019-03-25T05:54:59.420Z,7.10
2019-03-25T05:57:28.921Z,7.00
2019-03-25T05:59:57.777Z,6.80
2019-03-25T06:04:55.199Z,6.70
2019-03-25T06:07:23.994Z,6.70
2019-03-25T06:09:52.830Z,6.60
2019-03-25T06:12:21.725Z,6.60
2019-03-25T06:14:50.641Z,6.70
2019-03-25T06:17:19.449Z,6.80
2019-03-25T06:19:48.292Z,6.90
2019-03-25T06:22:17.225Z,6.90
2019-03-25T06:24:46.011Z,7.00
2019-03-25T06:27:14.899Z,7.10
2019-03-25T06:29:43.747Z,7.10
2019-03-25T06:32:12.638Z,7.30
2019-03-25T06:34:41.769Z,7.50
2019-03-25T06:37:10.748Z,7.60
2019-03-25T06:39:39.582Z,7.60
2019-03-25T06:44:37.020Z,7.80
2019-03-25T06:47:05.908Z,7.90
2019-03-25T06:49:34.768Z,7.80
2019-03-25T06:52:03.821Z,7.80
2019-03-25T06:54:32.701Z,7.90
2019-03-25T06:57:01.648Z,7.90
2019-03-25T06:59:30.435Z,8.10
2019-03-25T07:01:59.306Z,8.20
2019-03-25T07:04:28.153Z,8.50
2019-03-25T07:06:57.080Z,8.60
2019-03-25T07:09:25.961Z,8.60
2019-03-25T07:11:54.900Z,8.50
2019-03-25T07:14:24.692Z,8.30
2019-03-25T07:16:53.487Z,8.10
2019-03-25T07:19:22.290Z,8.00
2019-03-25T07:22:11.876Z,7.30
2019-03-25T07:24:40.850Z,7.00
2019-03-25T07:27:09.766Z,6.80
2019-03-25T07:29:38.658Z,6.70
2019-03-25T07:32:09.221Z,6.70
2019-03-25T07:34:38.008Z,6.60
2019-03-25T07:37:06.848Z,6.70
2019-03-25T07:39:35.750Z,6.80
2019-03-25T07:42:04.732Z,6.70
2019-03-25T07:44:33.606Z,6.70
2019-03-25T07:47:02.468Z,6.80
2019-03-25T07:49:31.356Z,7.00
2019-03-25T07:52:00.151Z,7.20
2019-03-25T07:54:29.050Z,7.20
2019-03-25T07:56:57.820Z,7.10
2019-03-25T07:59:26.663Z,6.90
2019-03-25T08:01:55.477Z,6.90
2019-03-25T08:04:24.374Z,7.00
2019-03-25T08:06:53.318Z,7.20
2019-03-25T08:09:22.209Z,7.30
2019-03-25T08:11:50.992Z,7.40
2019-03-25T08:14:19.864Z,7.70
2019-03-25T08:16:48.441Z,8.00
2019-03-25T08:19:17.323Z,8.10
2019-03-25T08:21:46.238Z,8.10
2019-03-25T08:24:15.189Z,8.30
2019-03-25T08:26:44.145Z,8.50
2019-03-25T08:29:13.023Z,8.60
2019-03-25T08:31:41.857Z,8.60
2019-03-25T08:34:10.733Z,8.80
2019-03-25T08:36:39.721Z,8.90
2019-03-25T08:39:08.737Z,9.20
2019-03-25T08:41:37.610Z,9.40
2019-03-25T08:44:06.618Z,9.50
2019-03-25T08:46:35.530Z,9.50
2019-03-25T08:49:04.493Z,9.30
2019-03-25T08:51:33.362Z,9.10
2019-03-25T08:54:02.322Z,8.90
2019-03-25T08:56:31.188Z,9.00
2019-03-25T08:59:00.173Z,9.20
2019-03-25T09:01:29.036Z,6.20
2019-03-25T09:03:57.917Z,8.90
2019-03-25T09:06:26.759Z,8.90
2019-03-25T09:08:55.618Z,8.90
2019-03-25T09:11:24.485Z,9.20
2019-03-25T09:13:53.406Z,9.40
2019-03-25T09:16:22.240Z,9.50
2019-03-25T09:18:51.126Z,9.90
2019-03-25T09:21:20.000Z,10.10
2019-03-25T09:23:48.898Z,10.40
2019-03-25T09:26:17.828Z,10.60
2019-03-25T09:28:46.806Z,10.80
2019-03-25T09:31:15.854Z,10.80
2019-03-25T09:33:44.994Z,11.30
2019-03-25T09:36:14.102Z,11.40
2019-03-25T09:38:43.036Z,11.60
2019-03-25T09:41:12.983Z,11.10
2019-03-25T09:43:41.979Z,10.50
2019-03-25T09:48:58.764Z,9.60
2019-03-25T09:51:27.542Z,9.20
2019-03-25T09:53:56.513Z,8.80
2019-03-25T09:56:25.512Z,8.70
2019-03-25T09:58:54.350Z,8.70
2019-03-25T10:01:23.425Z,8.80
2019-03-25T10:03:52.272Z,9.00
2019-03-25T10:06:21.212Z,9.10
2019-03-25T10:08:50.170Z,9.30
2019-03-25T10:11:19.048Z,9.60
2019-03-25T10:13:47.976Z,10.20
2019-03-25T10:18:45.368Z,10.60
2019-03-25T10:21:14.337Z,10.50
2019-03-25T10:23:43.556Z,10.40
2019-03-25T10:26:12.459Z,10.40
2019-03-25T10:28:48.674Z,10.20
2019-03-25T10:33:41.383Z,10.40
2019-03-25T10:36:10.284Z,10.60
2019-03-25T10:38:39.197Z,10.60
2019-03-25T10:41:08.268Z,10.70
2019-03-25T10:43:37.199Z,10.50
2019-03-25T10:46:06.144Z,10.30
2019-03-25T10:48:34.924Z,10.30
2019-03-25T10:51:03.969Z,10.70
2019-03-25T10:53:32.855Z,11.30
2019-03-25T10:56:01.993Z,11.70
2019-03-25T10:58:30.801Z,11.70
2019-03-25T11:00:59.958Z,11.60
2019-03-25T11:03:28.843Z,11.80
2019-03-25T11:05:57.731Z,11.80
2019-03-25T11:08:26.577Z,12.80
2019-03-25T11:10:55.273Z,12.90
2019-03-25T11:13:24.120Z,12.70
2019-03-25T11:15:53.082Z,12.20
2019-03-25T11:18:21.979Z,11.60
2019-03-25T11:20:51.853Z,11.30
2019-03-25T11:23:20.740Z,11.10
2019-03-25T11:25:49.692Z,11.20
2019-03-25T11:28:18.634Z,11.40
2019-03-25T11:30:55.123Z,11.70
2019-03-25T11:33:24.295Z,12.30
2019-03-25T11:35:53.345Z,12.30
2019-03-25T11:38:22.155Z,13.00
2019-03-25T11:40:50.802Z,13.90
2019-03-25T11:43:19.437Z,14.50
2019-03-25T11:45:48.301Z,14.00
2019-03-25T11:48:16.910Z,14.00
2019-03-25T11:50:45.867Z,13.30
2019-03-25T11:55:43.683Z,14.90
2019-03-25T11:58:12.293Z,15.20
2019-03-25T12:03:09.149Z,14.90
2019-03-25T12:05:37.660Z,14.10
2019-03-25T12:08:06.404Z,13.80
2019-03-25T12:10:35.125Z,13.80
2019-03-25T12:13:03.801Z,14.70
2019-03-25T12:15:33.054Z,15.30
2019-03-25T12:20:30.074Z,19.60
2019-03-25T12:22:58.661Z,19.60
2019-03-25T12:25:27.216Z,18.70
2019-03-25T12:27:55.840Z,18.20
2019-03-25T12:30:24.519Z,17.60
2019-03-25T12:33:03.399Z,17.00
2019-03-25T12:35:23.356Z,16.40
2019-03-25T12:37:53.019Z,15.80
2019-03-25T12:42:51.967Z,14.60
2019-03-25T12:45:20.558Z,14.00
2019-03-25T12:47:49.516Z,14.00
2019-03-25T12:50:18.505Z,13.00
2019-03-25T12:52:47.573Z,11.90
2019-03-25T12:55:16.464Z,10.70
2019-03-25T12:57:45.340Z,9.80
2019-03-25T13:00:15.432Z,9.40
2019-03-25T13:02:44.499Z,9.20
2019-03-25T13:05:13.522Z,9.30
2019-03-25T13:07:42.361Z,9.40
2019-03-25T13:10:11.690Z,9.50
2019-03-25T13:12:40.538Z,9.50
2019-03-25T13:15:10.275Z,9.80
2019-03-25T13:17:39.128Z,10.40
2019-03-25T13:20:08.277Z,10.90
2019-03-25T13:22:37.088Z,11.80
2019-03-25T13:25:06.741Z,12.10
2019-03-25T13:27:35.309Z,12.60
2019-03-25T13:30:07.249Z,12.30
2019-03-25T13:32:36.183Z,11.90
2019-03-25T13:35:09.060Z,11.70
2019-03-25T13:37:37.929Z,11.10
2019-03-25T13:40:27.653Z,10.90
2019-03-25T13:42:56.835Z,10.80
2019-03-25T13:45:25.737Z,10.70
2019-03-25T13:47:54.515Z,10.50
2019-03-25T13:50:23.464Z,10.40
2019-03-25T13:52:52.250Z,10.50
2019-03-25T13:57:49.799Z,10.20
2019-03-25T14:00:22.900Z,10.20
2019-03-25T14:02:51.799Z,10.20
2019-03-25T14:05:20.675Z,10.30
2019-03-25T14:07:49.669Z,10.40
2019-03-25T14:10:18.692Z,10.60
2019-03-25T14:12:47.556Z,10.90
2019-03-25T14:15:16.509Z,11.10
2019-03-25T14:17:45.374Z,11.10
2019-03-25T14:20:14.348Z,10.70
2019-03-25T14:22:43.200Z,10.30
2019-03-25T14:25:12.242Z,10.20
2019-03-25T14:27:41.112Z,10.00
2019-03-25T14:30:14.850Z,10.30
2019-03-25T14:32:41.360Z,10.30
2019-03-25T14:35:10.252Z,11.30
2019-03-25T14:37:38.837Z,12.20
2019-03-25T14:40:08.570Z,13.40
2019-03-25T14:42:37.230Z,14.90
2019-03-25T14:45:06.900Z,18.40
2019-03-25T14:47:35.569Z,19.30
2019-03-25T14:50:08.355Z,23.50
2019-03-25T14:52:36.929Z,27.50
2019-03-25T14:55:05.776Z,31.10
2019-03-25T14:57:34.386Z,33.90
2019-03-25T15:00:03.109Z,36.30
2019-03-25T15:02:31.674Z,37.70
2019-03-25T15:05:00.354Z,36.90
2019-03-25T15:07:28.933Z,37.20
2019-03-25T15:09:57.550Z,38.70
2019-03-25T15:12:26.116Z,39.10
2019-03-25T15:14:54.716Z,35.70
2019-03-25T15:17:23.279Z,33.40
2019-03-25T15:19:51.880Z,29.50
2019-03-25T15:22:21.205Z,26.20
2019-03-25T15:24:49.801Z,22.50
2019-03-25T15:27:18.345Z,21.60
2019-03-25T15:29:46.919Z,20.50
2019-03-25T15:32:15.519Z,19.70
2019-03-25T15:34:44.023Z,21.70
2019-03-25T15:37:12.614Z,23.90
2019-03-25T15:39:46.613Z,27.50
2019-03-25T15:42:11.641Z,26.90
2019-03-25T15:44:40.236Z,28.40
2019-03-25T15:47:08.904Z,29.90
2019-03-25T15:49:37.561Z,32.40
2019-03-25T15:52:06.232Z,31.30
2019-03-25T15:54:34.803Z,30.50
2019-03-25T15:57:03.666Z,29.80
2019-03-25T15:59:32.304Z,27.50
2019-03-25T16:02:01.171Z,25.40
2019-03-25T16:04:29.695Z,22.20
2019-03-25T16:06:58.287Z,21.40
2019-03-25T16:09:26.896Z,19.90
2019-03-25T16:11:55.581Z,18.70
2019-03-25T16:14:24.181Z,17.40
2019-03-25T16:16:52.789Z,17.10
2019-03-25T16:19:21.389Z,15.70
2019-03-25T16:21:50.011Z,15.30
2019-03-25T16:24:18.595Z,15.30
2019-03-25T16:26:47.203Z,15.30
2019-03-25T16:29:18.015Z,15.40
2019-03-25T16:31:46.050Z,15.40
2019-03-25T16:36:42.907Z,15.20
2019-03-25T16:39:11.482Z,14.90
2019-03-25T16:41:40.105Z,14.60
2019-03-25T16:44:08.756Z,14.40
2019-03-25T16:49:05.608Z,14.40
2019-03-25T16:51:34.214Z,14.70
2019-03-25T16:54:02.796Z,14.60
2019-03-25T16:56:31.436Z,14.50
2019-03-25T16:59:00.018Z,14.30
2019-03-25T17:06:25.056Z,13.70
2019-03-25T17:08:53.916Z,13.40
2019-03-25T17:11:22.804Z,13.00
2019-03-25T17:16:20.236Z,12.30
2019-03-25T17:18:49.145Z,12.00
2019-03-25T17:21:18.032Z,11.70
2019-03-25T17:23:47.044Z,11.50
2019-03-25T17:31:20.574Z,10.90
2019-03-25T17:36:11.799Z,10.60
2019-03-25T17:51:04.911Z,9.90
2019-03-25T17:56:02.363Z,9.70
2019-03-25T18:01:02.537Z,9.60
2019-03-25T18:05:59.940Z,9.40
2019-03-25T18:08:28.885Z,9.40
2019-03-25T18:10:57.738Z,9.40
2019-03-25T18:18:23.804Z,9.20
2019-03-25T18:20:52.578Z,9.10
2019-03-25T18:25:49.991Z,8.90
2019-03-25T18:28:18.883Z,8.90
2019-03-25T18:30:47.802Z,8.90
2019-03-25T18:33:16.684Z,8.90
2019-03-25T18:35:45.521Z,8.90
2019-03-25T18:38:14.404Z,8.90
2019-03-25T18:43:11.822Z,8.90
2019-03-25T18:45:41.017Z,8.80
2019-03-25T18:48:09.894Z,8.80
2019-03-25T18:50:38.827Z,8.80
2019-03-25T18:55:37.440Z,8.80
2019-03-25T18:58:06.454Z,8.80
2019-03-25T19:00:35.942Z,8.70
2019-03-25T19:03:05.297Z,8.60
2019-03-25T19:05:34.301Z,8.50
2019-03-25T19:08:04.768Z,8.50
2019-03-25T19:10:33.871Z,8.40
2019-03-25T19:13:02.739Z,8.40
2019-03-25T19:15:31.658Z,8.30
2019-03-25T19:18:00.550Z,8.30
2019-03-25T19:20:29.436Z,8.20
2019-03-25T19:22:58.365Z,8.10
2019-03-25T19:25:27.229Z,8.10
2019-03-25T19:27:56.390Z,8.10
2019-03-25T19:30:25.280Z,8.20
2019-03-25T19:32:54.211Z,8.20
2019-03-25T19:35:23.164Z,8.30
2019-03-25T19:37:52.139Z,8.30
2019-03-25T19:40:20.991Z,8.30
2019-03-25T19:42:49.986Z,8.30
2019-03-25T19:45:18.998Z,8.40
2019-03-25T19:47:47.884Z,8.40
2019-03-25T19:50:17.064Z,8.40
2019-03-25T19:52:46.008Z,8.40
2019-03-25T19:55:15.005Z,8.40
2019-03-25T19:57:43.929Z,8.40
2019-03-25T20:00:14.754Z,8.30
2019-03-25T20:02:43.739Z,8.30
2019-03-25T20:05:12.859Z,8.30
2019-03-25T20:07:41.829Z,8.30
2019-03-25T20:10:13.788Z,8.40
2019-03-25T20:12:42.620Z,8.40
2019-03-25T20:15:11.667Z,8.40
2019-03-25T20:17:40.773Z,8.40
2019-03-25T20:20:10.156Z,8.40
2019-03-25T20:22:39.036Z,8.40
2019-03-25T20:25:08.163Z,8.50
2019-03-25T20:27:36.981Z,8.50
2019-03-25T20:30:11.375Z,8.60
2019-03-25T20:32:40.334Z,8.60
2019-03-25T20:35:09.436Z,8.70
2019-03-25T20:37:38.313Z,8.70
2019-03-25T20:40:11.181Z,8.70
2019-03-25T20:42:42.837Z,8.60
2019-03-25T20:45:12.281Z,8.50
2019-03-25T20:47:41.812Z,8.50
2019-03-25T20:50:10.804Z,10.00
2019-03-25T20:52:39.685Z,8.30
2019-03-25T20:55:08.694Z,8.20
2019-03-25T20:57:40.439Z,8.20
2019-03-25T21:00:29.331Z,8.10
2019-03-25T21:02:58.187Z,8.00
2019-03-25T21:05:27.060Z,8.00
2019-03-25T21:07:55.968Z,8.00
2019-03-25T21:10:24.942Z,7.90
2019-03-25T21:12:53.881Z,7.90
2019-03-25T21:15:22.732Z,5.10
2019-03-25T21:17:51.581Z,7.70
2019-03-25T21:20:20.520Z,7.60
2019-03-25T21:22:49.338Z,7.60
2019-03-25T21:25:18.255Z,7.60
2019-03-25T21:27:47.105Z,7.60
2019-03-25T21:30:16.212Z,7.60
2019-03-25T21:32:57.331Z,7.60
2019-03-25T21:35:15.620Z,7.60
2019-03-25T21:37:44.711Z,7.70
2019-03-25T21:40:13.694Z,7.70
2019-03-25T21:42:42.570Z,7.70
2019-03-25T21:45:11.623Z,10.70
2019-03-25T21:47:40.435Z,7.70
2019-03-25T21:50:09.565Z,7.60
2019-03-25T21:52:38.417Z,7.60
2019-03-25T21:55:07.792Z,7.60
2019-03-25T21:57:36.588Z,7.60
2019-03-25T22:00:07.182Z,7.60
2019-03-25T22:02:36.110Z,7.60
2019-03-25T22:05:06.526Z,7.70
2019-03-25T22:07:35.444Z,7.60
2019-03-25T22:10:05.002Z,7.70
2019-03-25T22:12:33.820Z,7.60
2019-03-25T22:15:02.737Z,10.70
2019-03-25T22:17:31.587Z,7.50
2019-03-25T22:20:00.466Z,7.50
2019-03-25T22:22:29.322Z,7.50
2019-03-25T22:24:58.182Z,7.40
2019-03-25T22:27:27.088Z,7.30
2019-03-25T22:29:55.938Z,7.40
2019-03-25T22:32:24.828Z,7.40
2019-03-25T22:34:53.694Z,7.50
2019-03-25T22:37:22.592Z,7.40
2019-03-25T22:39:51.460Z,7.50
2019-03-25T22:42:20.336Z,7.50
2019-03-25T22:44:49.187Z,7.50
2019-03-25T22:47:18.076Z,7.50
2019-03-25T22:49:47.187Z,7.60
2019-03-25T22:52:16.131Z,7.60
2019-03-25T22:54:44.896Z,7.60
2019-03-25T22:57:13.714Z,7.60
2019-03-25T22:59:42.563Z,7.60
2019-03-25T23:02:11.589Z,7.70
2019-03-25T23:04:40.448Z,7.70
2019-03-25T23:07:09.403Z,7.70
2019-03-25T23:09:38.240Z,7.70
2019-03-25T23:12:07.183Z,7.80
2019-03-25T23:14:36.023Z,7.90
2019-03-25T23:19:33.463Z,7.90
2019-03-25T23:22:02.504Z,7.90
2019-03-25T23:24:31.366Z,7.90
2019-03-25T23:27:00.264Z,7.90
2019-03-25T23:32:00.423Z,7.70
2019-03-25T23:34:29.264Z,11.90
2019-03-25T23:36:58.065Z,7.70
2019-03-25T23:41:55.418Z,7.60
2019-03-25T23:44:24.261Z,7.60
2019-03-25T23:46:53.077Z,7.60
2019-03-25T23:49:21.865Z,7.60
2019-03-25T23:51:50.741Z,7.70
2019-03-25T23:54:19.614Z,7.70
2019-03-25T23:56:48.493Z,7.80
2019-03-25T23:59:17.349Z,7.90
